createdAt,value
2023-05-16T00:00:06.985Z,100.00
2023-05-16T00:03:42.643Z,100.00
2023-05-16T00:07:19.409Z,100.00
2023-05-16T00:10:56.958Z,100.00
2023-05-16T00:14:36.470Z,100.00
2023-05-16T00:18:15.752Z,100.00
2023-05-16T00:21:49.524Z,100.00
2023-05-16T00:25:27.815Z,100.00
2023-05-16T00:29:04.900Z,99.94
2023-05-16T00:32:42.701Z,100.00
2023-05-16T00:36:23.553Z,100.00
2023-05-16T00:39:57.853Z,100.00
2023-05-16T00:43:35.936Z,99.84
2023-05-16T00:47:13.218Z,100.00
2023-05-16T00:50:52.511Z,99.84
2023-05-16T00:54:30.405Z,99.50
2023-05-16T00:58:06.898Z,99.52
2023-05-16T01:01:47.883Z,99.33
2023-05-16T01:05:22.028Z,99.05
2023-05-16T01:08:59.938Z,98.75
2023-05-16T01:12:57.213Z,98.44
2023-05-16T01:16:27.432Z,98.36
2023-05-16T01:20:15.796Z,98.10
2023-05-16T01:24:00.721Z,98.00
2023-05-16T01:27:09.212Z,97.99
2023-05-16T01:30:45.341Z,97.64
2023-05-16T01:34:22.935Z,97.45
2023-05-16T01:38:06.656Z,97.67
2023-05-16T01:42:04.802Z,97.42
2023-05-16T01:45:24.845Z,97.30
2023-05-16T01:49:17.258Z,97.13
2023-05-16T01:52:39.012Z,96.78
2023-05-16T01:56:29.362Z,96.60
2023-05-16T01:59:47.350Z,96.40
2023-05-16T02:03:24.704Z,95.95
2023-05-16T02:07:02.200Z,95.92
2023-05-16T02:10:41.499Z,95.77
2023-05-16T02:14:17.234Z,95.66
2023-05-16T02:17:55.982Z,95.28
2023-05-16T02:21:32.526Z,94.98
2023-05-16T02:25:11.295Z,95.12
2023-05-16T02:28:49.977Z,95.24
2023-05-16T02:32:26.470Z,95.53
2023-05-16T02:36:03.954Z,95.90
2023-05-16T02:39:41.634Z,96.08
2023-05-16T02:43:18.880Z,96.30
2023-05-16T02:46:56.938Z,96.58
2023-05-16T02:50:34.653Z,96.85
2023-05-16T02:54:12.042Z,96.95
2023-05-16T02:57:50.843Z,97.24
2023-05-16T03:01:27.342Z,97.38
2023-05-16T03:05:06.569Z,97.54
2023-05-16T03:08:42.835Z,97.73
2023-05-16T03:12:20.632Z,97.85
2023-05-16T03:15:57.900Z,97.86
2023-05-16T03:19:35.702Z,97.69
2023-05-16T03:23:13.437Z,97.57
2023-05-16T03:26:51.378Z,97.63
2023-05-16T03:30:28.485Z,97.34
2023-05-16T03:34:06.986Z,97.38
2023-05-16T03:37:43.869Z,97.24
2023-05-16T03:41:22.380Z,97.32
2023-05-16T03:44:59.234Z,97.09
2023-05-16T03:48:37.080Z,97.25
2023-05-16T03:52:14.658Z,97.19
2023-05-16T03:55:52.280Z,97.70
2023-05-16T03:59:29.927Z,97.54
2023-05-16T04:03:08.607Z,97.51
2023-05-16T04:06:47.438Z,96.79
2023-05-16T04:10:23.440Z,96.63
2023-05-16T04:14:02.033Z,96.28
2023-05-16T04:17:38.916Z,96.39
2023-05-16T04:21:16.365Z,96.00
2023-05-16T04:24:54.035Z,95.80
2023-05-16T04:28:31.397Z,95.88
2023-05-16T04:32:09.842Z,96.14
2023-05-16T04:35:47.213Z,96.24
2023-05-16T04:39:24.708Z,96.31
2023-05-16T04:43:02.201Z,95.98
2023-05-16T04:46:42.175Z,96.61
2023-05-16T04:50:18.327Z,96.58
2023-05-16T04:53:56.278Z,96.68
2023-05-16T04:57:32.921Z,96.28
2023-05-16T05:01:10.937Z,96.23
2023-05-16T05:04:48.440Z,96.15
2023-05-16T05:08:26.258Z,95.64
2023-05-16T05:12:04.165Z,95.61
2023-05-16T05:15:41.679Z,96.22
2023-05-16T05:19:19.511Z,96.65
2023-05-16T05:22:56.958Z,96.88
2023-05-16T05:26:34.389Z,97.13
2023-05-16T05:30:12.260Z,97.58
2023-05-16T05:33:49.525Z,97.20
2023-05-16T05:37:27.393Z,97.08
2023-05-16T05:41:06.737Z,97.94
2023-05-16T05:44:42.985Z,98.29
2023-05-16T05:48:20.171Z,98.54
2023-05-16T05:51:58.310Z,99.36
2023-05-16T05:55:36.149Z,99.66
2023-05-16T05:59:13.962Z,99.96
2023-05-16T06:02:52.159Z,100.00
2023-05-16T06:06:29.498Z,100.00
2023-05-16T06:10:08.722Z,100.00
2023-05-16T06:13:44.268Z,100.00
2023-05-16T06:17:21.900Z,100.00
2023-05-16T06:20:59.738Z,100.00
2023-05-16T06:24:37.051Z,100.00
2023-05-16T06:28:14.758Z,100.00
2023-05-16T06:31:52.382Z,100.00
2023-05-16T06:35:30.726Z,100.00
2023-05-16T06:39:08.853Z,100.00
2023-05-16T06:42:45.852Z,100.00
2023-05-16T06:46:23.303Z,100.00
2023-05-16T06:50:01.157Z,100.00
2023-05-16T06:53:38.436Z,100.00
2023-05-16T06:57:35.092Z,100.00
2023-05-16T07:00:53.857Z,100.00
2023-05-16T07:04:40.519Z,100.00
2023-05-16T07:08:12.835Z,100.00
2023-05-16T07:11:47.408Z,100.00
2023-05-16T07:15:24.730Z,100.00
2023-05-16T07:19:02.425Z,100.00
2023-05-16T07:22:41.062Z,100.00
2023-05-16T07:26:19.220Z,100.00
2023-05-16T07:29:55.292Z,100.00
2023-05-16T07:33:35.871Z,99.94
2023-05-16T07:37:13.410Z,100.00
2023-05-16T07:40:48.341Z,100.00
2023-05-16T07:44:26.208Z,100.00
2023-05-16T07:48:03.710Z,100.00
2023-05-16T07:51:42.282Z,100.00
2023-05-16T07:55:18.897Z,100.00
2023-05-16T07:58:56.831Z,100.00
2023-05-16T08:02:34.777Z,100.00
2023-05-16T08:06:12.750Z,100.00
2023-05-16T08:09:49.566Z,100.00
2023-05-16T08:13:27.379Z,100.00
2023-05-16T08:17:05.347Z,100.00
2023-05-16T08:20:43.689Z,100.00
2023-05-16T08:24:20.756Z,100.00
2023-05-16T08:28:02.319Z,100.00
2023-05-16T08:31:36.565Z,99.96
2023-05-16T08:35:13.817Z,99.80
2023-05-16T08:38:51.217Z,97.45
2023-05-16T08:42:47.900Z,97.16
2023-05-16T08:46:27.985Z,96.32
2023-05-16T08:49:47.711Z,95.64
2023-05-16T08:53:27.948Z,95.87
2023-05-16T08:57:02.738Z,95.25
2023-05-16T09:00:37.384Z,94.25
2023-05-16T09:04:16.515Z,94.95
2023-05-16T09:07:52.855Z,95.47
2023-05-16T09:11:30.563Z,95.37
2023-05-16T09:15:10.796Z,95.14
2023-05-16T09:18:57.398Z,94.78
2023-05-16T09:22:24.036Z,95.44
2023-05-16T09:26:01.075Z,97.23
2023-05-16T09:29:42.140Z,97.26
2023-05-16T09:33:16.737Z,97.13
2023-05-16T09:36:56.968Z,97.26
2023-05-16T09:40:32.184Z,97.70
2023-05-16T09:44:09.190Z,96.78
2023-05-16T09:48:07.867Z,95.69
2023-05-16T09:51:24.370Z,95.60
2023-05-16T09:55:05.202Z,95.86
2023-05-16T09:58:41.956Z,94.44
2023-05-16T10:02:18.270Z,94.27
2023-05-16T10:05:56.346Z,93.21
2023-05-16T10:09:34.741Z,92.88
2023-05-16T10:13:12.591Z,92.80
2023-05-16T10:16:50.120Z,92.37
2023-05-16T10:20:27.118Z,92.72
2023-05-16T10:24:06.987Z,93.25
2023-05-16T10:27:42.926Z,92.96
2023-05-16T10:31:38.868Z,93.79
2023-05-16T10:34:57.307Z,92.38
2023-05-16T10:38:35.744Z,92.87
2023-05-16T10:42:14.427Z,92.48
2023-05-16T10:45:56.346Z,92.11
2023-05-16T10:49:28.080Z,91.76
2023-05-16T10:53:26.811Z,90.73
2023-05-16T10:56:43.615Z,91.08
2023-05-16T11:00:23.628Z,90.05
2023-05-16T11:04:02.533Z,89.55
2023-05-16T11:07:39.604Z,89.03
2023-05-16T11:11:41.374Z,89.63
2023-05-16T11:14:52.068Z,88.65
2023-05-16T11:18:33.145Z,87.29
2023-05-16T11:22:24.792Z,87.87
2023-05-16T11:25:46.296Z,87.87
2023-05-16T11:29:22.405Z,86.40
2023-05-16T11:32:59.523Z,86.68
2023-05-16T11:36:38.778Z,84.90
2023-05-16T11:40:17.368Z,83.17
2023-05-16T11:43:53.210Z,84.44
2023-05-16T11:47:32.206Z,82.51
2023-05-16T11:51:09.354Z,82.40
2023-05-16T11:54:46.009Z,81.77
2023-05-16T11:58:23.675Z,80.50
2023-05-16T12:02:05.740Z,81.72
2023-05-16T12:05:40.716Z,81.98
2023-05-16T12:09:18.331Z,83.09
2023-05-16T12:12:55.313Z,84.03
2023-05-16T12:16:33.159Z,83.84
2023-05-16T12:20:14.803Z,83.68
2023-05-16T12:23:47.270Z,83.72
2023-05-16T12:27:28.179Z,83.51
2023-05-16T12:31:03.387Z,83.81
2023-05-16T12:34:40.320Z,84.08
2023-05-16T12:38:20.483Z,83.57
2023-05-16T12:41:55.880Z,83.65
2023-05-16T12:45:35.432Z,84.96
2023-05-16T12:49:11.422Z,85.98
2023-05-16T12:52:53.875Z,85.61
2023-05-16T12:56:26.711Z,86.27
2023-05-16T13:00:04.247Z,87.02
2023-05-16T13:03:41.545Z,87.14
2023-05-16T13:07:19.304Z,88.14
2023-05-16T13:10:57.335Z,89.18
2023-05-16T13:14:34.346Z,89.26
2023-05-16T13:18:12.553Z,89.03
2023-05-16T13:21:50.042Z,90.17
2023-05-16T13:25:28.001Z,91.18
2023-05-16T13:29:05.796Z,91.26
2023-05-16T13:32:43.204Z,91.50
2023-05-16T13:36:20.670Z,89.72
2023-05-16T13:39:58.528Z,90.08
2023-05-16T13:43:36.415Z,89.51
2023-05-16T13:47:32.777Z,89.47
2023-05-16T13:50:53.620Z,89.44
2023-05-16T13:54:29.049Z,90.04
2023-05-16T13:58:06.935Z,90.65
2023-05-16T14:01:44.532Z,90.52
2023-05-16T14:05:22.799Z,90.31
2023-05-16T14:08:59.660Z,91.20
2023-05-16T14:12:38.140Z,90.87
2023-05-16T14:16:15.323Z,91.01
2023-05-16T14:19:53.673Z,90.02
2023-05-16T14:23:30.693Z,90.78
2023-05-16T14:27:07.998Z,90.51
2023-05-16T14:30:47.339Z,90.76
2023-05-16T14:34:23.603Z,91.72
2023-05-16T14:38:01.319Z,91.63
2023-05-16T14:41:38.835Z,91.48
2023-05-16T14:45:17.357Z,91.45
2023-05-16T14:48:53.980Z,91.46
2023-05-16T14:52:32.242Z,90.63
2023-05-16T14:56:09.580Z,91.63
2023-05-16T14:59:48.796Z,90.48
2023-05-16T15:03:25.321Z,89.99
2023-05-16T15:07:02.282Z,90.28
2023-05-16T15:10:40.269Z,90.44
2023-05-16T15:14:18.256Z,90.10
2023-05-16T15:17:56.112Z,89.04
2023-05-16T15:21:33.934Z,88.47
2023-05-16T15:25:11.298Z,87.80
2023-05-16T15:28:49.039Z,88.36
2023-05-16T15:32:26.640Z,87.43
2023-05-16T15:36:05.256Z,87.49
2023-05-16T15:39:42.627Z,87.26
2023-05-16T15:43:19.445Z,87.94
2023-05-16T15:46:57.496Z,87.05
2023-05-16T15:50:54.039Z,86.30
2023-05-16T15:54:12.516Z,85.71
2023-05-16T15:57:50.353Z,85.94
2023-05-16T16:01:27.853Z,85.71
2023-05-16T16:05:05.923Z,86.25
2023-05-16T16:08:43.469Z,85.64
2023-05-16T16:12:21.042Z,85.46
2023-05-16T16:15:58.647Z,84.77
2023-05-16T16:19:36.489Z,85.30
2023-05-16T16:23:14.009Z,85.15
2023-05-16T16:26:51.657Z,85.81
2023-05-16T16:30:28.959Z,85.59
2023-05-16T16:34:07.623Z,85.50
2023-05-16T16:37:54.796Z,85.15
2023-05-16T16:41:22.382Z,84.50
2023-05-16T16:45:00.262Z,84.89
2023-05-16T16:48:38.141Z,86.36
2023-05-16T16:52:15.893Z,84.12
2023-05-16T16:55:52.841Z,85.03
2023-05-16T16:59:31.077Z,84.76
2023-05-16T17:03:08.562Z,85.37
2023-05-16T17:06:48.405Z,84.46
2023-05-16T17:10:23.669Z,84.30
2023-05-16T17:14:01.402Z,85.52
2023-05-16T17:17:38.747Z,82.09
2023-05-16T17:21:16.697Z,82.06
2023-05-16T17:24:54.397Z,83.33
2023-05-16T17:28:32.623Z,82.85
2023-05-16T17:32:09.395Z,81.28
2023-05-16T17:35:47.791Z,82.78
2023-05-16T17:39:25.135Z,81.27
2023-05-16T17:43:02.915Z,82.41
2023-05-16T17:46:42.529Z,81.68
2023-05-16T17:50:20.024Z,80.70
2023-05-16T17:53:55.623Z,81.53
2023-05-16T17:57:34.512Z,81.53
2023-05-16T18:01:11.625Z,79.96
2023-05-16T18:04:49.015Z,79.82
2023-05-16T18:08:26.456Z,78.80
2023-05-16T18:12:04.146Z,77.82
2023-05-16T18:15:41.641Z,79.30
2023-05-16T18:19:20.196Z,78.28
2023-05-16T18:22:57.827Z,78.31
2023-05-16T18:26:34.996Z,77.01
2023-05-16T18:30:13.688Z,74.99
2023-05-16T18:33:50.363Z,75.44
2023-05-16T18:37:27.831Z,75.77
2023-05-16T18:41:06.338Z,72.56
2023-05-16T18:44:43.640Z,73.65
2023-05-16T18:48:20.922Z,73.07
2023-05-16T18:51:58.461Z,71.40
2023-05-16T18:55:36.737Z,71.34
2023-05-16T18:59:13.908Z,70.82
2023-05-16T19:02:52.330Z,71.13
2023-05-16T19:06:29.507Z,69.43
2023-05-16T19:10:12.562Z,68.73
2023-05-16T19:13:45.734Z,69.51
2023-05-16T19:17:22.235Z,69.87
2023-05-16T19:20:59.674Z,67.48
2023-05-16T19:24:37.396Z,69.51
2023-05-16T19:28:16.701Z,69.02
2023-05-16T19:31:53.101Z,68.85
2023-05-16T19:35:30.676Z,69.50
2023-05-16T19:39:08.322Z,70.22
2023-05-16T19:42:46.033Z,69.30
2023-05-16T19:46:23.868Z,70.38
2023-05-16T19:50:02.553Z,71.45
2023-05-16T19:53:38.755Z,70.03
2023-05-16T19:57:16.620Z,70.70
2023-05-16T20:00:54.899Z,71.88
2023-05-16T20:04:32.184Z,71.46
2023-05-16T20:08:09.957Z,71.78
2023-05-16T20:11:47.889Z,72.29
2023-05-16T20:15:25.905Z,72.36
2023-05-16T20:19:02.575Z,72.32
2023-05-16T20:22:41.772Z,72.42
2023-05-16T20:26:17.929Z,73.01
2023-05-16T20:29:57.293Z,72.84
2023-05-16T20:33:33.357Z,74.11
2023-05-16T20:37:10.830Z,73.59
2023-05-16T20:40:48.317Z,73.42
2023-05-16T20:44:26.232Z,73.89
2023-05-16T20:48:04.301Z,73.57
2023-05-16T20:51:41.553Z,73.49
2023-05-16T20:55:18.965Z,74.56
2023-05-16T20:58:57.020Z,74.08
2023-05-16T21:02:34.793Z,73.91
2023-05-16T21:06:12.230Z,74.04
2023-05-16T21:09:49.958Z,74.35
2023-05-16T21:13:29.212Z,74.37
2023-05-16T21:17:04.986Z,73.74
2023-05-16T21:20:43.232Z,74.26
2023-05-16T21:24:21.319Z,73.72
2023-05-16T21:27:58.441Z,74.90
2023-05-16T21:31:35.773Z,74.78
2023-05-16T21:35:13.761Z,74.40
2023-05-16T21:38:51.491Z,74.62
2023-05-16T21:42:29.016Z,74.25
2023-05-16T21:46:07.197Z,74.09
2023-05-16T21:49:44.587Z,74.72
2023-05-16T21:53:24.210Z,75.02
2023-05-16T21:56:59.691Z,74.96
2023-05-16T22:01:13.183Z,75.28
2023-05-16T22:04:15.440Z,74.40
2023-05-16T22:07:54.147Z,75.55
2023-05-16T22:11:30.919Z,75.12
2023-05-16T22:15:10.928Z,74.97
2023-05-16T22:18:45.645Z,75.39
2023-05-16T22:22:23.704Z,75.80
2023-05-16T22:26:21.151Z,74.84
2023-05-16T22:29:38.808Z,75.79
2023-05-16T22:33:16.744Z,75.97
2023-05-16T22:36:54.293Z,76.01
2023-05-16T22:40:32.339Z,76.20
2023-05-16T22:44:09.581Z,76.01
2023-05-16T22:47:47.036Z,76.53
2023-05-16T22:51:24.930Z,75.64
2023-05-16T22:55:02.718Z,76.32
2023-05-16T22:58:39.999Z,76.80
2023-05-16T23:02:18.119Z,76.56
2023-05-16T23:05:56.010Z,76.51
2023-05-16T23:09:33.220Z,76.21
2023-05-16T23:13:10.517Z,75.57
2023-05-16T23:16:48.612Z,76.32
2023-05-16T23:20:26.190Z,76.97
2023-05-16T23:24:04.001Z,76.51
2023-05-16T23:27:41.795Z,76.85
2023-05-16T23:31:19.483Z,77.35
2023-05-16T23:34:57.243Z,76.92
2023-05-16T23:38:34.632Z,76.85
2023-05-16T23:42:12.504Z,77.64
2023-05-16T23:45:50.067Z,77.47
2023-05-16T23:49:27.622Z,77.96
2023-05-16T23:53:05.090Z,78.65
2023-05-16T23:56:43.148Z,78.69
